US-0059 weather

Chicken Strip
California, United States

Public forecast

Using degrees Fahrenheit for public forecast. Weather courtesy of forecast.io.

METAR (pilot weather report)

Closest report is Eastern Sierra Regional Airport, 44.0 nm (81.4 km) NW. Retrieved 2019/07/17 22:56 UTC (47 minutes ago):

KBIH 172256Z AUTO 15017G23KT 10SM CLR 36/01 A2990 RMK AO2 SLP067 T03610006

TAF (pilot weather forecast)

Closest forecast is Eastern Sierra Regional Airport, 44.0 nm (81.4 km) NW. Retrieved 2019/07/17 18:30 UTC (5 hours ago):

TAF KBIH 171728Z 1718/1818 30008KT P6SM SKC FM172100 16011KT P6SM SKC FM180500 VRB05KT P6SM SKC